sensor_id;sensor_type;location;lat;lon;timestamp;P1;durP1;ratioP1;P2;durP2;ratioP2
77748;SDS011;66938;52.084;5.228;2023-01-16T00:00:50;6.5;;;3.2;;
77748;SDS011;66938;52.084;5.228;2023-01-16T00:01:35;6.5;;;3.2;;
77748;SDS011;66938;52.084;5.228;2023-01-16T00:03:12;6.5;;;3.2;;
77748;SDS011;66938;52.084;5.228;2023-01-16T00:04:10;6.5;;;3.2;;
77748;SDS011;66938;52.084;5.228;2023-01-16T00:05:49;7.4;;;4.41;;
77748;SDS011;66938;52.084;5.228;2023-01-16T00:06:25;7.4;;;4.41;;
77748;SDS011;66938;52.084;5.228;2023-01-16T00:07:32;6.2;;;4.2;;
77748;SDS011;66938;52.084;5.228;2023-01-16T00:08:01;6.2;;;4.2;;
77748;SDS011;66938;52.084;5.228;2023-01-16T00:09:12;5.7;;;4.3;;
77748;SDS011;66938;52.084;5.228;2023-01-16T00:09:38;5.7;;;4.3;;
77748;SDS011;66938;52.084;5.228;2023-01-16T00:11:15;7.9;;;4.91;;
77748;SDS011;66938;52.084;5.228;2023-01-16T00:12:27;7.9;;;4.91;;
77748;SDS011;66938;52.084;5.228;2023-01-16T00:14:04;6.3;;;5.0;;
77748;SDS011;66938;52.084;5.228;2023-01-16T00:14:30;6.3;;;5.0;;
77748;SDS011;66938;52.084;5.228;2023-01-16T00:15:43;5.7;;;4.41;;
77748;SDS011;66938;52.084;5.228;2023-01-16T00:16:07;5.7;;;4.41;;
77748;SDS011;66938;52.084;5.228;2023-01-16T00:17:44;9.0;;;5.5;;
77748;SDS011;66938;52.084;5.228;2023-01-16T00:20:58;6.7;;;4.8;;
77748;SDS011;66938;52.084;5.228;2023-01-16T00:22:35;8.2;;;6.2;;
77748;SDS011;66938;52.084;5.228;2023-01-16T00:24:12;7.9;;;6.6;;
77748;SDS011;66938;52.084;5.228;2023-01-16T00:25:49;6.9;;;5.3;;
77748;SDS011;66938;52.084;5.228;2023-01-16T00:29:03;6.3;;;5.0;;
77748;SDS011;66938;52.084;5.228;2023-01-16T00:30:40;8.5;;;5.11;;
77748;SDS011;66938;52.084;5.228;2023-01-16T00:32:18;7.7;;;5.5;;
77748;SDS011;66938;52.084;5.228;2023-01-16T00:35:33;6.8;;;6.1;;
77748;SDS011;66938;52.084;5.228;2023-01-16T00:37:11;6.7;;;5.4;;
77748;SDS011;66938;52.084;5.228;2023-01-16T00:38:49;6.8;;;5.4;;
77748;SDS011;66938;52.084;5.228;2023-01-16T00:40:26;7.4;;;6.1;;
77748;SDS011;66938;52.084;5.228;2023-01-16T00:43:40;7.8;;;6.0;;
77748;SDS011;66938;52.084;5.228;2023-01-16T00:45:18;8.71;;;7.3;;
77748;SDS011;66938;52.084;5.228;2023-01-16T00:46:54;8.5;;;7.5;;
77748;SDS011;66938;52.084;5.228;2023-01-16T00:50:09;8.6;;;7.7;;
77748;SDS011;66938;52.084;5.228;2023-01-16T00:51:47;8.31;;;7.1;;
77748;SDS011;66938;52.084;5.228;2023-01-16T00:53:24;9.0;;;7.9;;
77748;SDS011;66938;52.084;5.228;2023-01-16T00:56:37;10.9;;;9.71;;
77748;SDS011;66938;52.084;5.228;2023-01-16T00:58:14;10.1;;;9.1;;
77748;SDS011;66938;52.084;5.228;2023-01-16T00:59:51;12.1;;;10.5;;
77748;SDS011;66938;52.084;5.228;2023-01-16T01:01:28;12.6;;;11.4;;
77748;SDS011;66938;52.084;5.228;2023-01-16T01:04:42;11.9;;;10.7;;
77748;SDS011;66938;52.084;5.228;2023-01-16T01:06:19;13.8;;;12.4;;
77748;SDS011;66938;52.084;5.228;2023-01-16T01:07:56;14.8;;;13.3;;
77748;SDS011;66938;52.084;5.228;2023-01-16T01:11:12;12.1;;;10.9;;
77748;SDS011;66938;52.084;5.228;2023-01-16T01:12:52;13.0;;;11.2;;
77748;SDS011;66938;52.084;5.228;2023-01-16T01:14:30;13.0;;;10.9;;
77748;SDS011;66938;52.084;5.228;2023-01-16T01:16:08;12.2;;;10.9;;
77748;SDS011;66938;52.084;5.228;2023-01-16T01:19:22;11.1;;;9.6;;
77748;SDS011;66938;52.084;5.228;2023-01-16T01:20:59;12.3;;;10.8;;
77748;SDS011;66938;52.084;5.228;2023-01-16T01:22:36;13.3;;;9.5;;
77748;SDS011;66938;52.084;5.228;2023-01-16T01:25:52;12.3;;;9.31;;
77748;SDS011;66938;52.084;5.228;2023-01-16T01:27:29;11.3;;;8.81;;
77748;SDS011;66938;52.084;5.228;2023-01-16T01:29:06;10.21;;;8.5;;
77748;SDS011;66938;52.084;5.228;2023-01-16T01:30:44;10.3;;;8.9;;
77748;SDS011;66938;52.084;5.228;2023-01-16T01:33:57;12.1;;;8.71;;
77748;SDS011;66938;52.084;5.228;2023-01-16T01:35:33;12.5;;;10.4;;
77748;SDS011;66938;52.084;5.228;2023-01-16T01:37:10;15.4;;;11.8;;
77748;SDS011;66938;52.084;5.228;2023-01-16T01:40:26;14.2;;;10.9;;
77748;SDS011;66938;52.084;5.228;2023-01-16T01:43:10;13.4;;;10.8;;
77748;SDS011;66938;52.084;5.228;2023-01-16T01:44:52;13.2;;;9.71;;
77748;SDS011;66938;52.084;5.228;2023-01-16T01:46:32;12.9;;;10.6;;
77748;SDS011;66938;52.084;5.228;2023-01-16T01:48:19;11.3;;;9.6;;
77748;SDS011;66938;52.084;5.228;2023-01-16T01:50:02;14.2;;;11.5;;
77748;SDS011;66938;52.084;5.228;2023-01-16T01:51:49;14.3;;;11.2;;
77748;SDS011;66938;52.084;5.228;2023-01-16T01:55:19;12.9;;;10.6;;
77748;SDS011;66938;52.084;5.228;2023-01-16T01:56:58;13.3;;;10.6;;
77748;SDS011;66938;52.084;5.228;2023-01-16T01:58:40;13.2;;;10.1;;
77748;SDS011;66938;52.084;5.228;2023-01-16T02:00:20;12.0;;;10.3;;
77748;SDS011;66938;52.084;5.228;2023-01-16T02:01:58;11.4;;;9.21;;
77748;SDS011;66938;52.084;5.228;2023-01-16T02:05:19;12.6;;;10.5;;
77748;SDS011;66938;52.084;5.228;2023-01-16T02:07:02;14.1;;;10.1;;
77748;SDS011;66938;52.084;5.228;2023-01-16T02:08:44;12.2;;;9.31;;
77748;SDS011;66938;52.084;5.228;2023-01-16T02:10:25;16.11;;;11.0;;
77748;SDS011;66938;52.084;5.228;2023-01-16T02:13:48;13.3;;;9.6;;
77748;SDS011;66938;52.084;5.228;2023-01-16T02:15:25;16.11;;;11.7;;
77748;SDS011;66938;52.084;5.228;2023-01-16T02:19:28;12.9;;;8.5;;
77748;SDS011;66938;52.084;5.228;2023-01-16T02:21:19;12.3;;;8.5;;
77748;SDS011;66938;52.084;5.228;2023-01-16T02:27:08;11.5;;;8.9;;
77748;SDS011;66938;52.084;5.228;2023-01-16T02:30:32;10.8;;;7.9;;
77748;SDS011;66938;52.084;5.228;2023-01-16T02:33:26;9.4;;;6.7;;
77748;SDS011;66938;52.084;5.228;2023-01-16T02:38:09;10.0;;;5.9;;
77748;SDS011;66938;52.084;5.228;2023-01-16T02:39:58;8.1;;;4.91;;
77748;SDS011;66938;52.084;5.228;2023-01-16T02:41:47;8.31;;;5.11;;
77748;SDS011;66938;52.084;5.228;2023-01-16T02:45:16;9.31;;;5.5;;
77748;SDS011;66938;52.084;5.228;2023-01-16T02:47:02;8.0;;;4.41;;
77748;SDS011;66938;52.084;5.228;2023-01-16T02:48:48;7.0;;;4.3;;
77748;SDS011;66938;52.084;5.228;2023-01-16T02:50:35;7.3;;;3.8;;
77748;SDS011;66938;52.084;5.228;2023-01-16T02:52:21;9.6;;;4.41;;
77748;SDS011;66938;52.084;5.228;2023-01-16T07:07:56;8.0;;;1.9;;
77748;SDS011;66938;52.084;5.228;2023-01-16T07:09:33;6.4;;;1.8;;
77748;SDS011;66938;52.084;5.228;2023-01-16T07:12:48;6.4;;;1.8;;
77748;SDS011;66938;52.084;5.228;2023-01-16T07:22:46;5.11;;;1.4;;
77748;SDS011;66938;52.084;5.228;2023-01-16T07:24:24;5.11;;;1.6;;
77748;SDS011;66938;52.084;5.228;2023-01-16T07:27:44;6.0;;;1.5;;
77748;SDS011;66938;52.084;5.228;2023-01-16T07:29:24;4.5;;;1.4;;
77748;SDS011;66938;52.084;5.228;2023-01-16T07:31:03;6.9;;;1.7;;
77748;SDS011;66938;52.084;5.228;2023-01-16T07:32:42;4.8;;;1.4;;
77748;SDS011;66938;52.084;5.228;2023-01-16T07:35:58;5.5;;;1.4;;
77748;SDS011;66938;52.084;5.228;2023-01-16T07:37:35;5.8;;;1.8;;
77748;SDS011;66938;52.084;5.228;2023-01-16T07:39:12;4.8;;;1.4;;
77748;SDS011;66938;52.084;5.228;2023-01-16T07:40:49;5.11;;;1.4;;
77748;SDS011;66938;52.084;5.228;2023-01-16T07:44:03;5.4;;;1.4;;
77748;SDS011;66938;52.084;5.228;2023-01-16T07:45:40;3.8;;;1.2;;
77748;SDS011;66938;52.084;5.228;2023-01-16T07:47:17;4.91;;;1.4;;
77748;SDS011;66938;52.084;5.228;2023-01-16T07:50:32;4.1;;;1.2;;
77748;SDS011;66938;52.084;5.228;2023-01-16T07:52:09;4.3;;;1.2;;
77748;SDS011;66938;52.084;5.228;2023-01-16T07:53:45;5.2;;;1.4;;
77748;SDS011;66938;52.084;5.228;2023-01-16T07:57:00;5.11;;;1.5;;
77748;SDS011;66938;52.084;5.228;2023-01-16T07:58:41;5.2;;;1.4;;
77748;SDS011;66938;52.084;5.228;2023-01-16T08:00:19;4.5;;;1.2;;
77748;SDS011;66938;52.084;5.228;2023-01-16T08:01:56;6.5;;;1.4;;
77748;SDS011;66938;52.084;5.228;2023-01-16T08:05:09;3.9;;;1.11;;
77748;SDS011;66938;52.084;5.228;2023-01-16T08:06:46;4.8;;;1.5;;
77748;SDS011;66938;52.084;5.228;2023-01-16T08:08:25;4.1;;;1.3;;
77748;SDS011;66938;52.084;5.228;2023-01-16T08:11:46;4.0;;;1.4;;
77748;SDS011;66938;52.084;5.228;2023-01-16T08:13:23;3.7;;;1.2;;
77748;SDS011;66938;52.084;5.228;2023-01-16T08:15:00;4.8;;;1.3;;
77748;SDS011;66938;52.084;5.228;2023-01-16T08:16:37;3.6;;;1.2;;
77748;SDS011;66938;52.084;5.228;2023-01-16T08:19:52;3.7;;;1.11;;
77748;SDS011;66938;52.084;5.228;2023-01-16T08:21:29;4.61;;;1.2;;
77748;SDS011;66938;52.084;5.228;2023-01-16T08:23:06;4.41;;;1.3;;
77748;SDS011;66938;52.084;5.228;2023-01-16T08:26:19;3.7;;;1.4;;
77748;SDS011;66938;52.084;5.228;2023-01-16T08:27:55;4.3;;;1.2;;
77748;SDS011;66938;52.084;5.228;2023-01-16T08:29:32;3.9;;;1.3;;
77748;SDS011;66938;52.084;5.228;2023-01-16T08:31:12;3.9;;;1.4;;
77748;SDS011;66938;52.084;5.228;2023-01-16T08:34:27;4.3;;;1.4;;
77748;SDS011;66938;52.084;5.228;2023-01-16T08:36:04;3.7;;;1.4;;
77748;SDS011;66938;52.084;5.228;2023-01-16T08:37:47;4.91;;;1.6;;
77748;SDS011;66938;52.084;5.228;2023-01-16T08:39:25;5.5;;;1.5;;
77748;SDS011;66938;52.084;5.228;2023-01-16T08:51:30;3.8;;;1.6;;
77748;SDS011;66938;52.084;5.228;2023-01-16T08:53:07;3.9;;;1.6;;
77748;SDS011;66938;52.084;5.228;2023-01-16T08:54:44;3.5;;;1.6;;
77748;SDS011;66938;52.084;5.228;2023-01-16T08:56:22;3.3;;;1.8;;
77748;SDS011;66938;52.084;5.228;2023-01-16T08:59:36;3.6;;;1.6;;
77748;SDS011;66938;52.084;5.228;2023-01-16T09:01:15;4.5;;;1.6;;
77748;SDS011;66938;52.084;5.228;2023-01-16T09:02:53;4.61;;;1.8;;
77748;SDS011;66938;52.084;5.228;2023-01-16T09:04:33;3.6;;;1.7;;
77748;SDS011;66938;52.084;5.228;2023-01-16T09:07:48;5.0;;;1.9;;
77748;SDS011;66938;52.084;5.228;2023-01-16T09:09:26;5.2;;;2.0;;
77748;SDS011;66938;52.084;5.228;2023-01-16T09:15:15;4.91;;;2.0;;
77748;SDS011;66938;52.084;5.228;2023-01-16T09:18:28;4.41;;;1.8;;
77748;SDS011;66938;52.084;5.228;2023-01-16T09:20:05;5.11;;;1.9;;
77748;SDS011;66938;52.084;5.228;2023-01-16T09:21:42;4.61;;;1.9;;
77748;SDS011;66938;52.084;5.228;2023-01-16T09:24:55;5.5;;;1.8;;
77748;SDS011;66938;52.084;5.228;2023-01-16T09:26:32;5.0;;;2.1;;
77748;SDS011;66938;52.084;5.228;2023-01-16T09:28:08;4.7;;;2.0;;
77748;SDS011;66938;52.084;5.228;2023-01-16T09:29:44;4.3;;;1.9;;
77748;SDS011;66938;52.084;5.228;2023-01-16T09:32:57;4.3;;;2.0;;
77748;SDS011;66938;52.084;5.228;2023-01-16T09:34:33;4.91;;;2.1;;
77748;SDS011;66938;52.084;5.228;2023-01-16T09:36:10;4.91;;;2.1;;
77748;SDS011;66938;52.084;5.228;2023-01-16T09:39:23;3.8;;;2.21;;
77748;SDS011;66938;52.084;5.228;2023-01-16T09:40:59;5.3;;;2.31;;
77748;SDS011;66938;52.084;5.228;2023-01-16T09:43:42;4.1;;;2.21;;
77748;SDS011;66938;52.084;5.228;2023-01-16T09:45:25;3.6;;;2.0;;
77748;SDS011;66938;52.084;5.228;2023-01-16T09:47:05;4.8;;;2.0;;
77748;SDS011;66938;52.084;5.228;2023-01-16T09:48:46;5.9;;;2.1;;
77748;SDS011;66938;52.084;5.228;2023-01-16T09:58:42;5.2;;;2.1;;
77748;SDS011;66938;52.084;5.228;2023-01-16T10:00:36;3.0;;;1.6;;
77748;SDS011;66938;52.084;5.228;2023-01-16T10:02:17;4.2;;;1.6;;
77748;SDS011;66938;52.084;5.228;2023-01-16T10:03:57;5.0;;;1.9;;
77748;SDS011;66938;52.084;5.228;2023-01-16T10:05:53;4.8;;;1.7;;
77748;SDS011;66938;52.084;5.228;2023-01-16T10:07:39;3.3;;;1.5;;
77748;SDS011;66938;52.084;5.228;2023-01-16T10:11:26;4.0;;;1.5;;
77748;SDS011;66938;52.084;5.228;2023-01-16T10:13:18;4.1;;;1.7;;
77748;SDS011;66938;52.084;5.228;2023-01-16T10:15:14;3.4;;;1.4;;
77748;SDS011;66938;52.084;5.228;2023-01-16T10:17:03;3.2;;;1.4;;
77748;SDS011;66938;52.084;5.228;2023-01-16T10:18:55;3.1;;;1.2;;
77748;SDS011;66938;52.084;5.228;2023-01-16T10:20:43;3.9;;;1.5;;
77748;SDS011;66938;52.084;5.228;2023-01-16T10:22:34;4.3;;;1.3;;
77748;SDS011;66938;52.084;5.228;2023-01-16T10:24:21;2.5;;;1.2;;
77748;SDS011;66938;52.084;5.228;2023-01-16T10:26:10;4.2;;;1.6;;
77748;SDS011;66938;52.084;5.228;2023-01-16T10:29:47;2.8;;;1.11;;
77748;SDS011;66938;52.084;5.228;2023-01-16T10:31:29;3.7;;;1.2;;
77748;SDS011;66938;52.084;5.228;2023-01-16T10:33:12;2.7;;;1.11;;
77748;SDS011;66938;52.084;5.228;2023-01-16T10:35:00;3.4;;;1.3;;
77748;SDS011;66938;52.084;5.228;2023-01-16T10:36:43;3.8;;;1.3;;
77748;SDS011;66938;52.084;5.228;2023-01-16T10:40:14;3.3;;;1.3;;
77748;SDS011;66938;52.084;5.228;2023-01-16T10:50:14;3.6;;;1.7;;
77748;SDS011;66938;52.084;5.228;2023-01-16T10:51:51;4.1;;;1.6;;
77748;SDS011;66938;52.084;5.228;2023-01-16T10:55:06;3.3;;;1.6;;
77748;SDS011;66938;52.084;5.228;2023-01-16T10:56:45;3.9;;;1.7;;
77748;SDS011;66938;52.084;5.228;2023-01-16T10:58:23;2.7;;;1.6;;
77748;SDS011;66938;52.084;5.228;2023-01-16T11:01:44;3.0;;;1.8;;
77748;SDS011;66938;52.084;5.228;2023-01-16T11:03:26;4.5;;;2.4;;
77748;SDS011;66938;52.084;5.228;2023-01-16T11:05:25;3.9;;;2.8;;
77748;SDS011;66938;52.084;5.228;2023-01-16T11:07:20;3.9;;;3.2;;
77748;SDS011;66938;52.084;5.228;2023-01-16T11:09:00;4.61;;;4.2;;
77748;SDS011;66938;52.084;5.228;2023-01-16T11:10:39;6.1;;;4.8;;
77748;SDS011;66938;52.084;5.228;2023-01-16T11:18:47;6.3;;;5.7;;
77748;SDS011;66938;52.084;5.228;2023-01-16T11:20:25;5.9;;;5.3;;
77748;SDS011;66938;52.084;5.228;2023-01-16T11:22:09;7.3;;;5.4;;
77748;SDS011;66938;52.084;5.228;2023-01-16T11:23:59;5.11;;;4.61;;
77748;SDS011;66938;52.084;5.228;2023-01-16T11:25:39;5.6;;;4.3;;
77748;SDS011;66938;52.084;5.228;2023-01-16T11:28:59;5.2;;;4.0;;
77748;SDS011;66938;52.084;5.228;2023-01-16T11:30:36;5.0;;;4.1;;
77748;SDS011;66938;52.084;5.228;2023-01-16T11:32:18;4.41;;;3.7;;
77748;SDS011;66938;52.084;5.228;2023-01-16T11:34:01;5.2;;;3.7;;
77748;SDS011;66938;52.084;5.228;2023-01-16T11:39:05;3.9;;;3.3;;
77748;SDS011;66938;52.084;5.228;2023-01-16T11:40:50;5.8;;;3.6;;
77748;SDS011;66938;52.084;5.228;2023-01-16T11:46:20;4.8;;;3.7;;
77748;SDS011;66938;52.084;5.228;2023-01-16T11:48:33;4.91;;;3.4;;
77748;SDS011;66938;52.084;5.228;2023-01-16T11:52:11;4.0;;;3.4;;
77748;SDS011;66938;52.084;5.228;2023-01-16T11:53:49;5.5;;;3.5;;
77748;SDS011;66938;52.084;5.228;2023-01-16T11:55:30;4.41;;;3.3;;
77748;SDS011;66938;52.084;5.228;2023-01-16T11:57:18;5.6;;;4.1;;
77748;SDS011;66938;52.084;5.228;2023-01-16T11:59:12;4.41;;;3.8;;
77748;SDS011;66938;52.084;5.228;2023-01-16T12:01:09;4.8;;;4.3;;
77748;SDS011;66938;52.084;5.228;2023-01-16T12:02:56;5.7;;;4.61;;
77748;SDS011;66938;52.084;5.228;2023-01-16T12:06:01;4.7;;;4.0;;
77748;SDS011;66938;52.084;5.228;2023-01-16T12:07:50;5.3;;;4.0;;
77748;SDS011;66938;52.084;5.228;2023-01-16T12:09:43;4.2;;;3.3;;
77748;SDS011;66938;52.084;5.228;2023-01-16T12:11:33;4.3;;;3.1;;
77748;SDS011;66938;52.084;5.228;2023-01-16T12:14:42;3.6;;;2.5;;
77748;SDS011;66938;52.084;5.228;2023-01-16T12:16:28;2.7;;;2.21;;
77748;SDS011;66938;52.084;5.228;2023-01-16T12:18:18;2.31;;;1.5;;
77748;SDS011;66938;52.084;5.228;2023-01-16T12:20:10;2.31;;;1.6;;
77748;SDS011;66938;52.084;5.228;2023-01-16T12:21:56;2.5;;;1.2;;
77748;SDS011;66938;52.084;5.228;2023-01-16T12:23:50;2.8;;;1.6;;
77748;SDS011;66938;52.084;5.228;2023-01-16T12:25:55;2.0;;;1.4;;
77748;SDS011;66938;52.084;5.228;2023-01-16T12:29:32;2.0;;;1.3;;
77748;SDS011;66938;52.084;5.228;2023-01-16T12:31:42;3.1;;;1.7;;
77748;SDS011;66938;52.084;5.228;2023-01-16T12:33:56;3.0;;;1.9;;
77748;SDS011;66938;52.084;5.228;2023-01-16T12:35:51;3.2;;;2.1;;
77748;SDS011;66938;52.084;5.228;2023-01-16T12:37:38;4.41;;;3.2;;
77748;SDS011;66938;52.084;5.228;2023-01-16T12:39:54;3.7;;;2.9;;
77748;SDS011;66938;52.084;5.228;2023-01-16T12:43:31;4.3;;;3.6;;
77748;SDS011;66938;52.084;5.228;2023-01-16T12:45:23;3.4;;;3.1;;
77748;SDS011;66938;52.084;5.228;2023-01-16T12:47:19;4.5;;;3.4;;
77748;SDS011;66938;52.084;5.228;2023-01-16T12:49:18;4.41;;;3.6;;
77748;SDS011;66938;52.084;5.228;2023-01-16T12:51:11;4.7;;;3.0;;
77748;SDS011;66938;52.084;5.228;2023-01-16T12:53:08;4.5;;;4.0;;
77748;SDS011;66938;52.084;5.228;2023-01-16T12:57:08;3.9;;;2.6;;
77748;SDS011;66938;52.084;5.228;2023-01-16T12:59:19;3.3;;;1.8;;
77748;SDS011;66938;52.084;5.228;2023-01-16T13:02:48;3.1;;;1.8;;
77748;SDS011;66938;52.084;5.228;2023-01-16T13:04:33;2.4;;;1.6;;
77748;SDS011;66938;52.084;5.228;2023-01-16T13:06:14;2.31;;;1.4;;
77748;SDS011;66938;52.084;5.228;2023-01-16T13:07:59;2.5;;;1.7;;
77748;SDS011;66938;52.084;5.228;2023-01-16T13:13:48;2.31;;;1.4;;
77748;SDS011;66938;52.084;5.228;2023-01-16T13:15:29;2.8;;;1.6;;
77748;SDS011;66938;52.084;5.228;2023-01-16T13:17:11;1.9;;;1.3;;
77748;SDS011;66938;52.084;5.228;2023-01-16T13:18:54;2.31;;;1.6;;
77748;SDS011;66938;52.084;5.228;2023-01-16T13:20:36;2.7;;;1.7;;
77748;SDS011;66938;52.084;5.228;2023-01-16T13:23:58;2.6;;;1.7;;
77748;SDS011;66938;52.084;5.228;2023-01-16T13:25:41;2.6;;;1.6;;
77748;SDS011;66938;52.084;5.228;2023-01-16T13:27:22;2.1;;;1.4;;
77748;SDS011;66938;52.084;5.228;2023-01-16T13:29:14;1.9;;;1.4;;
77748;SDS011;66938;52.084;5.228;2023-01-16T13:30:59;2.1;;;1.4;;
77748;SDS011;66938;52.084;5.228;2023-01-16T13:34:25;2.31;;;1.5;;
77748;SDS011;66938;52.084;5.228;2023-01-16T13:36:08;2.4;;;1.4;;
77748;SDS011;66938;52.084;5.228;2023-01-16T13:38:22;2.7;;;1.6;;
77748;SDS011;66938;52.084;5.228;2023-01-16T13:40:49;4.0;;;1.5;;
77748;SDS011;66938;52.084;5.228;2023-01-16T13:45:47;1.8;;;0.9;;
77748;SDS011;66938;52.084;5.228;2023-01-16T13:47:29;1.6;;;0.9;;
77748;SDS011;66938;52.084;5.228;2023-01-16T13:50:56;1.9;;;1.0;;
77748;SDS011;66938;52.084;5.228;2023-01-16T13:52:35;4.3;;;1.6;;
77748;SDS011;66938;52.084;5.228;2023-01-16T13:54:18;3.6;;;1.5;;
77748;SDS011;66938;52.084;5.228;2023-01-16T13:56:02;2.7;;;1.3;;
77748;SDS011;66938;52.084;5.228;2023-01-16T13:59:55;2.0;;;1.2;;
77748;SDS011;66938;52.084;5.228;2023-01-16T14:01:35;1.9;;;1.2;;
77748;SDS011;66938;52.084;5.228;2023-01-16T14:03:28;2.31;;;1.3;;
77748;SDS011;66938;52.084;5.228;2023-01-16T14:05:15;2.31;;;1.2;;
77748;SDS011;66938;52.084;5.228;2023-01-16T14:09:21;3.3;;;1.5;;
77748;SDS011;66938;52.084;5.228;2023-01-16T14:11:02;2.21;;;1.5;;
77748;SDS011;66938;52.084;5.228;2023-01-16T14:15:10;2.21;;;1.3;;
77748;SDS011;66938;52.084;5.228;2023-01-16T14:16:59;2.7;;;1.5;;
77748;SDS011;66938;52.084;5.228;2023-01-16T14:20:33;2.9;;;1.4;;
77748;SDS011;66938;52.084;5.228;2023-01-16T14:24:06;2.0;;;1.4;;
77748;SDS011;66938;52.084;5.228;2023-01-16T14:26:32;2.21;;;1.7;;
77748;SDS011;66938;52.084;5.228;2023-01-16T14:28:15;2.4;;;1.5;;
77748;SDS011;66938;52.084;5.228;2023-01-16T14:29:55;2.6;;;1.6;;
77748;SDS011;66938;52.084;5.228;2023-01-16T14:31:38;2.1;;;1.4;;
77748;SDS011;66938;52.084;5.228;2023-01-16T14:34:59;2.31;;;1.4;;
77748;SDS011;66938;52.084;5.228;2023-01-16T14:36:38;2.1;;;1.2;;
77748;SDS011;66938;52.084;5.228;2023-01-16T14:38:16;2.21;;;1.5;;
77748;SDS011;66938;52.084;5.228;2023-01-16T14:39:56;2.1;;;1.3;;
77748;SDS011;66938;52.084;5.228;2023-01-16T14:55:14;3.0;;;1.9;;
77748;SDS011;66938;52.084;5.228;2023-01-16T14:56:52;3.5;;;2.9;;
77748;SDS011;66938;52.084;5.228;2023-01-16T14:58:35;4.0;;;2.4;;
77748;SDS011;66938;52.084;5.228;2023-01-16T15:02:33;2.9;;;2.1;;
77748;SDS011;66938;52.084;5.228;2023-01-16T15:04:13;3.6;;;2.21;;
77748;SDS011;66938;52.084;5.228;2023-01-16T15:05:55;1.7;;;1.2;;
77748;SDS011;66938;52.084;5.228;2023-01-16T15:07:35;2.21;;;1.2;;
77748;SDS011;66938;52.084;5.228;2023-01-16T15:09:16;2.0;;;1.5;;
77748;SDS011;66938;52.084;5.228;2023-01-16T15:12:38;2.6;;;1.8;;
77748;SDS011;66938;52.084;5.228;2023-01-16T15:14:33;2.1;;;1.8;;
77748;SDS011;66938;52.084;5.228;2023-01-16T15:16:17;3.1;;;2.4;;
77748;SDS011;66938;52.084;5.228;2023-01-16T15:22:13;3.4;;;2.9;;
77748;SDS011;66938;52.084;5.228;2023-01-16T15:23:54;3.0;;;2.7;;
77748;SDS011;66938;52.084;5.228;2023-01-16T15:27:31;3.3;;;2.4;;
77748;SDS011;66938;52.084;5.228;2023-01-16T15:29:16;4.61;;;3.4;;
77748;SDS011;66938;52.084;5.228;2023-01-16T15:31:10;4.61;;;4.0;;
77748;SDS011;66938;52.084;5.228;2023-01-16T15:32:52;4.2;;;3.4;;
77748;SDS011;66938;52.084;5.228;2023-01-16T15:34:30;3.7;;;2.31;;
77748;SDS011;66938;52.084;5.228;2023-01-16T15:37:53;2.5;;;2.0;;
77748;SDS011;66938;52.084;5.228;2023-01-16T15:39:31;2.5;;;1.9;;
77748;SDS011;66938;52.084;5.228;2023-01-16T15:41:19;2.9;;;2.31;;
77748;SDS011;66938;52.084;5.228;2023-01-16T15:47:12;2.6;;;1.8;;
77748;SDS011;66938;52.084;5.228;2023-01-16T15:50:01;2.5;;;1.9;;
77748;SDS011;66938;52.084;5.228;2023-01-16T15:51:49;2.7;;;1.9;;
77748;SDS011;66938;52.084;5.228;2023-01-16T15:53:29;3.7;;;2.1;;
77748;SDS011;66938;52.084;5.228;2023-01-16T15:55:11;3.7;;;2.6;;
77748;SDS011;66938;52.084;5.228;2023-01-16T15:58:31;2.9;;;2.6;;
77748;SDS011;66938;52.084;5.228;2023-01-16T16:00:21;3.3;;;3.0;;
77748;SDS011;66938;52.084;5.228;2023-01-16T16:02:13;4.0;;;3.4;;
77748;SDS011;66938;52.084;5.228;2023-01-16T16:03:53;4.1;;;3.2;;
77748;SDS011;66938;52.084;5.228;2023-01-16T16:05:31;4.91;;;3.4;;
77748;SDS011;66938;52.084;5.228;2023-01-16T16:08:47;2.9;;;2.5;;
77748;SDS011;66938;52.084;5.228;2023-01-16T16:12:03;3.3;;;2.4;;
77748;SDS011;66938;52.084;5.228;2023-01-16T16:18:14;3.9;;;3.1;;
77748;SDS011;66938;52.084;5.228;2023-01-16T16:21:30;4.41;;;4.0;;
77748;SDS011;66938;52.084;5.228;2023-01-16T16:23:11;4.91;;;4.41;;
77748;SDS011;66938;52.084;5.228;2023-01-16T16:24:51;4.2;;;3.7;;
77748;SDS011;66938;52.084;5.228;2023-01-16T16:29:55;5.5;;;4.7;;
77748;SDS011;66938;52.084;5.228;2023-01-16T16:31:32;5.8;;;5.3;;
77748;SDS011;66938;52.084;5.228;2023-01-16T16:33:13;6.2;;;5.6;;
77748;SDS011;66938;52.084;5.228;2023-01-16T16:34:53;6.1;;;5.5;;
77748;SDS011;66938;52.084;5.228;2023-01-16T16:38:22;5.8;;;5.3;;
77748;SDS011;66938;52.084;5.228;2023-01-16T16:40:02;6.8;;;6.1;;
77748;SDS011;66938;52.084;5.228;2023-01-16T16:42:52;6.6;;;6.0;;
77748;SDS011;66938;52.084;5.228;2023-01-16T16:44:33;7.6;;;6.6;;
77748;SDS011;66938;52.084;5.228;2023-01-16T16:46:29;8.2;;;7.5;;
77748;SDS011;66938;52.084;5.228;2023-01-16T16:48:25;7.4;;;6.7;;
77748;SDS011;66938;52.084;5.228;2023-01-16T16:50:39;5.8;;;5.3;;
77748;SDS011;66938;52.084;5.228;2023-01-16T16:52:48;7.3;;;6.7;;
77748;SDS011;66938;52.084;5.228;2023-01-16T16:54:26;7.6;;;6.9;;
77748;SDS011;66938;52.084;5.228;2023-01-16T16:56:06;7.7;;;6.9;;
77748;SDS011;66938;52.084;5.228;2023-01-16T16:59:23;5.0;;;4.61;;
77748;SDS011;66938;52.084;5.228;2023-01-16T17:01:02;4.5;;;4.1;;
77748;SDS011;66938;52.084;5.228;2023-01-16T17:02:38;3.6;;;3.3;;
77748;SDS011;66938;52.084;5.228;2023-01-16T17:04:17;3.2;;;2.9;;
77748;SDS011;66938;52.084;5.228;2023-01-16T17:07:30;3.5;;;3.2;;
77748;SDS011;66938;52.084;5.228;2023-01-16T17:09:08;3.9;;;3.4;;
77748;SDS011;66938;52.084;5.228;2023-01-16T17:10:49;3.8;;;3.5;;
77748;SDS011;66938;52.084;5.228;2023-01-16T17:12:26;3.8;;;3.5;;
77748;SDS011;66938;52.084;5.228;2023-01-16T17:15:39;3.6;;;3.2;;
77748;SDS011;66938;52.084;5.228;2023-01-16T17:17:16;3.2;;;2.5;;
77748;SDS011;66938;52.084;5.228;2023-01-16T17:18:56;2.5;;;2.1;;
77748;SDS011;66938;52.084;5.228;2023-01-16T17:22:14;2.1;;;1.7;;
77748;SDS011;66938;52.084;5.228;2023-01-16T17:23:50;3.0;;;1.8;;
77748;SDS011;66938;52.084;5.228;2023-01-16T17:25:26;2.6;;;2.1;;
77748;SDS011;66938;52.084;5.228;2023-01-16T17:28:43;2.5;;;1.6;;
77748;SDS011;66938;52.084;5.228;2023-01-16T17:49:21;3.0;;;2.21;;
77748;SDS011;66938;52.084;5.228;2023-01-16T17:50:58;2.7;;;1.5;;
77748;SDS011;66938;52.084;5.228;2023-01-16T17:52:36;2.1;;;1.8;;
77748;SDS011;66938;52.084;5.228;2023-01-16T17:57:29;2.0;;;1.8;;
77748;SDS011;66938;52.084;5.228;2023-01-16T17:59:07;2.9;;;1.8;;
77748;SDS011;66938;52.084;5.228;2023-01-16T18:00:43;3.1;;;2.21;;
77748;SDS011;66938;52.084;5.228;2023-01-16T18:03:58;3.0;;;2.7;;
77748;SDS011;66938;52.084;5.228;2023-01-16T18:05:36;2.9;;;2.5;;
77748;SDS011;66938;52.084;5.228;2023-01-16T18:07:14;3.3;;;2.8;;
77748;SDS011;66938;52.084;5.228;2023-01-16T18:10:28;4.0;;;3.4;;
77748;SDS011;66938;52.084;5.228;2023-01-16T18:17:33;4.91;;;3.7;;
77748;SDS011;66938;52.084;5.228;2023-01-16T18:19:09;4.5;;;3.8;;
77748;SDS011;66938;52.084;5.228;2023-01-16T18:20:46;4.41;;;3.8;;
77748;SDS011;66938;52.084;5.228;2023-01-16T18:22:24;4.41;;;3.6;;
77748;SDS011;66938;52.084;5.228;2023-01-16T18:24:01;4.1;;;3.5;;
77748;SDS011;66938;52.084;5.228;2023-01-16T18:25:37;3.7;;;3.1;;
77748;SDS011;66938;52.084;5.228;2023-01-16T18:28:53;3.6;;;2.7;;
77748;SDS011;66938;52.084;5.228;2023-01-16T18:30:30;4.0;;;3.3;;
77748;SDS011;66938;52.084;5.228;2023-01-16T18:32:23;3.7;;;2.8;;
77748;SDS011;66938;52.084;5.228;2023-01-16T18:35:35;2.9;;;2.4;;
77748;SDS011;66938;52.084;5.228;2023-01-16T18:37:11;3.0;;;2.31;;
77748;SDS011;66938;52.084;5.228;2023-01-16T19:02:49;3.1;;;1.9;;
77748;SDS011;66938;52.084;5.228;2023-01-16T19:04:26;3.1;;;1.8;;
77748;SDS011;66938;52.084;5.228;2023-01-16T19:06:03;2.7;;;1.9;;
77748;SDS011;66938;52.084;5.228;2023-01-16T19:11:00;3.2;;;2.0;;
77748;SDS011;66938;52.084;5.228;2023-01-16T19:12:36;3.5;;;2.1;;
77748;SDS011;66938;52.084;5.228;2023-01-16T19:14:12;3.9;;;2.0;;
77748;SDS011;66938;52.084;5.228;2023-01-16T19:16:55;2.8;;;1.7;;
77748;SDS011;66938;52.084;5.228;2023-01-16T19:18:33;2.21;;;1.6;;
77748;SDS011;66938;52.084;5.228;2023-01-16T19:20:11;2.8;;;1.7;;
77748;SDS011;66938;52.084;5.228;2023-01-16T19:23:24;3.3;;;1.8;;
77748;SDS011;66938;52.084;5.228;2023-01-16T19:25:00;2.9;;;1.8;;